createdAt,value
2022-08-08T00:00:59.676Z,18.76
2022-08-08T00:03:32.933Z,18.73
2022-08-08T00:06:28.528Z,18.79
2022-08-08T00:09:08.571Z,18.73
2022-08-08T00:12:02.947Z,18.73
2022-08-08T00:15:01.152Z,18.73
2022-08-08T00:18:02.360Z,18.68
2022-08-08T00:20:41.673Z,18.69
2022-08-08T00:23:43.000Z,18.63
2022-08-08T00:26:39.934Z,18.61
2022-08-08T00:29:45.799Z,18.61
2022-08-08T00:32:33.902Z,18.61
2022-08-08T00:35:34.376Z,18.50
2022-08-08T00:38:31.201Z,18.49
2022-08-08T00:41:14.726Z,18.52
2022-08-08T00:44:01.353Z,18.47
2022-08-08T00:46:59.881Z,18.54
2022-08-08T00:50:04.619Z,18.47
2022-08-08T00:52:39.109Z,18.44
2022-08-08T00:55:53.395Z,18.45
2022-08-08T00:58:32.560Z,18.44
2022-08-08T01:01:29.313Z,18.50
2022-08-08T01:04:14.367Z,18.48
2022-08-08T01:07:19.331Z,18.53
2022-08-08T01:10:25.630Z,18.44
2022-08-08T01:13:16.667Z,18.47
2022-08-08T01:16:21.769Z,18.50
2022-08-08T01:20:02.175Z,18.52
2022-08-08T01:24:53.642Z,18.92
2022-08-08T01:27:43.978Z,18.92
2022-08-08T01:30:59.846Z,18.41
2022-08-08T01:34:00.054Z,18.40
2022-08-08T01:36:50.549Z,18.46
2022-08-08T01:39:41.882Z,18.36
2022-08-08T01:42:44.497Z,18.32
2022-08-08T01:45:56.084Z,18.30
2022-08-08T01:48:46.340Z,18.34
2022-08-08T01:53:01.111Z,18.43
2022-08-08T01:55:46.268Z,18.25
2022-08-08T01:58:12.545Z,18.26
2022-08-08T02:01:08.972Z,18.29
2022-08-08T02:04:02.594Z,18.24
2022-08-08T02:06:43.565Z,18.29
2022-08-08T02:10:01.273Z,18.28
2022-08-08T02:12:33.711Z,18.28
2022-08-08T02:15:13.394Z,18.30
2022-08-08T02:18:01.999Z,18.27
2022-08-08T02:21:02.736Z,18.27
2022-08-08T02:23:37.201Z,18.36
2022-08-08T02:26:25.320Z,18.27
2022-08-08T02:29:01.920Z,18.29
2022-08-08T02:32:32.605Z,18.38
2022-08-08T02:35:11.310Z,18.26
2022-08-08T02:38:12.811Z,18.25
2022-08-08T02:40:58.681Z,18.19
2022-08-08T02:44:37.083Z,18.13
2022-08-08T02:47:16.748Z,18.13
2022-08-08T02:50:22.209Z,18.15
2022-08-08T02:53:06.611Z,18.13
2022-08-08T02:56:05.365Z,18.08
2022-08-08T02:58:54.040Z,18.08
2022-08-08T03:02:09.195Z,18.20
2022-08-08T03:05:10.935Z,18.06
2022-08-08T03:07:58.474Z,18.11
2022-08-08T03:11:01.540Z,18.12
2022-08-08T03:15:59.704Z,18.17
2022-08-08T03:16:43.304Z,18.24
2022-08-08T03:19:17.647Z,18.25
2022-08-08T03:21:58.408Z,18.21
2022-08-08T03:24:28.702Z,18.19
2022-08-08T03:27:13.767Z,18.10
2022-08-08T03:29:54.887Z,18.18
2022-08-08T03:32:42.139Z,18.12
2022-08-08T03:35:15.754Z,18.14
2022-08-08T03:38:53.085Z,18.09
2022-08-08T03:40:32.187Z,18.05
2022-08-08T03:43:16.607Z,18.04
2022-08-08T03:46:07.098Z,18.06
2022-08-08T03:49:10.078Z,17.98
2022-08-08T03:51:26.517Z,17.94
2022-08-08T03:54:09.554Z,17.91
2022-08-08T03:56:36.727Z,17.86
2022-08-08T03:59:08.332Z,17.76
2022-08-08T04:02:31.589Z,17.77
2022-08-08T04:04:40.016Z,17.81
2022-08-08T04:07:08.871Z,17.77
2022-08-08T04:10:00.854Z,17.76
2022-08-08T04:12:24.312Z,17.76
2022-08-08T04:14:51.368Z,17.80
2022-08-08T04:17:40.903Z,17.75
2022-08-08T04:20:08.285Z,17.78
2022-08-08T04:22:36.049Z,17.78
2022-08-08T04:25:04.255Z,17.82
2022-08-08T04:28:03.575Z,17.83
2022-08-08T04:30:19.554Z,17.79
2022-08-08T04:32:50.376Z,17.77
2022-08-08T04:35:20.160Z,17.69
2022-08-08T04:37:49.173Z,17.75
2022-08-08T04:40:17.884Z,17.85
2022-08-08T04:42:46.732Z,17.88
2022-08-08T04:45:26.247Z,17.97
2022-08-08T04:47:54.108Z,18.04
2022-08-08T04:50:24.675Z,18.04
2022-08-08T04:53:00.663Z,18.08
2022-08-08T04:55:37.841Z,18.15
2022-08-08T04:58:17.482Z,18.18
2022-08-08T05:00:45.076Z,18.20
2022-08-08T05:03:19.114Z,18.30
2022-08-08T05:06:12.557Z,18.39
2022-08-08T05:08:44.093Z,18.53
2022-08-08T05:11:23.752Z,18.56
2022-08-08T05:13:57.975Z,18.56
2022-08-08T05:16:53.442Z,18.63
2022-08-08T05:20:10.417Z,18.60
2022-08-08T05:22:07.879Z,18.58
2022-08-08T05:24:37.138Z,18.69
2022-08-08T05:27:05.429Z,18.68
2022-08-08T05:29:35.952Z,18.69
2022-08-08T05:32:07.539Z,18.73
2022-08-08T05:34:49.841Z,18.74
2022-08-08T05:37:23.445Z,18.82
2022-08-08T05:40:06.887Z,18.92
2022-08-08T05:42:49.087Z,18.99
2022-08-08T05:45:25.112Z,18.96
2022-08-08T05:48:01.596Z,19.01
2022-08-08T05:50:38.992Z,19.03
2022-08-08T05:53:54.640Z,18.93
2022-08-08T05:56:08.014Z,18.99
2022-08-08T05:58:57.382Z,18.94
2022-08-08T06:01:56.256Z,18.95
2022-08-08T06:04:23.765Z,18.92
2022-08-08T06:07:04.093Z,18.89
2022-08-08T06:10:00.403Z,18.87
2022-08-08T06:12:30.167Z,18.83
2022-08-08T06:15:03.690Z,18.82
2022-08-08T06:18:18.449Z,18.81
2022-08-08T06:20:22.942Z,18.77
2022-08-08T06:22:53.362Z,18.94
2022-08-08T06:25:58.844Z,19.00
2022-08-08T06:28:16.022Z,19.04
2022-08-08T06:30:44.643Z,19.16
2022-08-08T06:33:13.341Z,19.15
2022-08-08T06:36:07.627Z,19.34
2022-08-08T06:38:37.687Z,19.51
2022-08-08T06:41:13.014Z,19.46
2022-08-08T06:43:47.787Z,19.49
2022-08-08T06:46:24.356Z,19.51
2022-08-08T06:48:51.447Z,19.59
2022-08-08T06:51:20.921Z,19.61
2022-08-08T06:53:51.012Z,19.68
2022-08-08T06:56:25.033Z,19.74
2022-08-08T06:58:53.226Z,19.73
2022-08-08T07:02:17.232Z,19.75
2022-08-08T07:04:37.833Z,19.82
2022-08-08T07:07:12.483Z,19.72
2022-08-08T07:09:59.345Z,19.80
2022-08-08T07:12:47.773Z,19.72
2022-08-08T07:15:32.389Z,19.84
2022-08-08T07:18:36.639Z,19.87
2022-08-08T07:21:02.244Z,19.84
2022-08-08T07:23:57.396Z,19.87
2022-08-08T07:26:35.365Z,19.85
2022-08-08T07:29:08.153Z,19.89
2022-08-08T07:31:48.363Z,19.91
2022-08-08T07:34:20.138Z,20.00
2022-08-08T07:36:59.813Z,20.07
2022-08-08T07:39:45.693Z,20.10
2022-08-08T07:42:18.718Z,20.12
2022-08-08T07:44:48.199Z,20.13
2022-08-08T07:47:18.385Z,20.14
2022-08-08T07:49:57.525Z,20.18
2022-08-08T07:52:27.291Z,20.35
2022-08-08T07:55:14.067Z,20.37
2022-08-08T07:58:01.797Z,20.40
2022-08-08T08:00:37.400Z,20.43
2022-08-08T08:03:23.927Z,20.46
2022-08-08T08:05:54.685Z,20.54
2022-08-08T08:08:27.821Z,20.43
2022-08-08T08:10:58.715Z,20.53
2022-08-08T08:14:06.359Z,20.53
2022-08-08T08:16:48.609Z,20.69
2022-08-08T08:19:18.249Z,20.88
2022-08-08T08:21:58.127Z,20.79
2022-08-08T08:24:31.955Z,20.87
2022-08-08T08:27:03.459Z,21.09
2022-08-08T08:29:31.621Z,21.20
2022-08-08T08:32:03.279Z,21.20
2022-08-08T08:34:33.713Z,21.23
2022-08-08T08:37:08.384Z,21.22
2022-08-08T08:40:00.829Z,21.17
2022-08-08T08:42:32.077Z,21.14
2022-08-08T08:45:21.991Z,21.56
2022-08-08T08:47:54.020Z,21.51
2022-08-08T08:50:34.029Z,21.50
2022-08-08T08:53:27.753Z,21.56
2022-08-08T08:56:02.361Z,21.50
2022-08-08T08:58:49.968Z,21.47
2022-08-08T09:01:20.997Z,21.30
2022-08-08T09:03:51.443Z,21.23
2022-08-08T09:06:33.239Z,21.02
2022-08-08T09:09:34.960Z,21.05
2022-08-08T09:12:09.885Z,20.89
2022-08-08T09:14:42.870Z,20.68
2022-08-08T09:17:18.374Z,20.87
2022-08-08T09:21:56.135Z,20.74
2022-08-08T09:22:39.546Z,20.61
2022-08-08T09:25:07.815Z,20.48
2022-08-08T09:27:56.495Z,20.50
2022-08-08T09:30:35.207Z,20.79
2022-08-08T09:33:55.413Z,20.90
2022-08-08T09:36:02.028Z,21.22
2022-08-08T09:38:54.177Z,21.44
2022-08-08T09:42:13.922Z,21.35
2022-08-08T09:44:49.849Z,21.18
2022-08-08T09:48:02.733Z,20.91
2022-08-08T09:50:13.857Z,20.66
2022-08-08T09:52:57.624Z,20.69
2022-08-08T09:55:51.909Z,21.07
2022-08-08T09:58:28.063Z,21.15
2022-08-08T10:01:58.550Z,20.63
2022-08-08T10:04:01.885Z,20.44
2022-08-08T10:06:35.630Z,20.71
2022-08-08T10:09:03.392Z,20.78
2022-08-08T10:12:26.811Z,20.65
2022-08-08T10:14:28.563Z,20.50
2022-08-08T10:17:57.059Z,20.67
2022-08-08T10:20:04.051Z,20.89
2022-08-08T10:22:36.023Z,20.94
2022-08-08T10:25:15.929Z,20.73
2022-08-08T10:27:51.909Z,20.66
2022-08-08T10:30:57.499Z,20.64
2022-08-08T10:33:13.769Z,20.30
2022-08-08T10:36:06.674Z,20.13
2022-08-08T10:38:43.923Z,19.86
2022-08-08T10:41:20.237Z,19.95
2022-08-08T10:43:51.743Z,19.89
2022-08-08T10:46:29.496Z,19.78
2022-08-08T10:48:59.558Z,19.70
2022-08-08T10:51:31.152Z,19.73
2022-08-08T10:54:02.132Z,19.77
2022-08-08T10:56:36.177Z,19.86
2022-08-08T10:59:14.249Z,19.92
2022-08-08T11:01:49.478Z,20.06
2022-08-08T11:04:29.547Z,19.97
2022-08-08T11:07:01.037Z,19.84
2022-08-08T11:09:32.041Z,19.74
2022-08-08T11:12:06.384Z,19.66
2022-08-08T11:15:00.153Z,19.63
2022-08-08T11:18:00.183Z,19.48
2022-08-08T11:20:27.419Z,19.57
2022-08-08T11:23:00.566Z,19.67
2022-08-08T11:25:53.480Z,19.71
2022-08-08T11:28:25.831Z,19.71
2022-08-08T11:30:59.773Z,19.86
2022-08-08T11:33:53.334Z,19.88
2022-08-08T11:36:15.470Z,19.86
2022-08-08T11:38:54.616Z,20.15
2022-08-08T11:41:32.566Z,20.25
2022-08-08T11:44:02.721Z,20.34
2022-08-08T11:46:32.649Z,20.36
2022-08-08T11:49:07.635Z,20.41
2022-08-08T11:51:39.715Z,20.64
2022-08-08T11:54:26.806Z,20.91
2022-08-08T11:56:58.233Z,21.11
2022-08-08T11:59:58.431Z,20.84
2022-08-08T12:02:32.783Z,20.78
2022-08-08T12:05:13.478Z,20.91
2022-08-08T12:07:51.043Z,21.03
2022-08-08T12:10:21.577Z,20.95
2022-08-08T12:12:51.834Z,20.93
2022-08-08T12:15:42.136Z,20.86
2022-08-08T12:18:28.698Z,20.70
2022-08-08T12:20:59.681Z,20.78
2022-08-08T12:23:43.543Z,20.77
2022-08-08T12:26:28.272Z,20.51
2022-08-08T12:29:21.833Z,20.47
2022-08-08T12:32:03.921Z,20.47
2022-08-08T12:34:37.717Z,20.42
2022-08-08T12:37:08.397Z,20.47
2022-08-08T12:39:59.827Z,20.58
2022-08-08T12:42:27.480Z,20.52
2022-08-08T12:45:58.243Z,20.38
2022-08-08T12:48:09.666Z,20.44
2022-08-08T12:50:58.263Z,20.67
2022-08-08T12:53:36.560Z,20.57
2022-08-08T12:56:18.996Z,20.57
2022-08-08T12:58:54.365Z,20.62
2022-08-08T13:01:37.007Z,20.65
2022-08-08T13:04:24.623Z,20.67
2022-08-08T13:07:06.336Z,20.71
2022-08-08T13:09:43.140Z,20.61
2022-08-08T13:12:32.930Z,20.74
2022-08-08T13:15:06.507Z,20.98
2022-08-08T13:18:08.847Z,21.09
2022-08-08T13:20:22.175Z,20.96
2022-08-08T13:22:49.408Z,21.14
2022-08-08T13:25:18.228Z,21.06
2022-08-08T13:28:00.688Z,20.97
2022-08-08T13:30:28.633Z,21.02
2022-08-08T13:32:57.316Z,20.79
2022-08-08T13:35:38.077Z,20.95
2022-08-08T13:38:08.481Z,20.99
2022-08-08T13:40:44.873Z,20.83
2022-08-08T13:43:16.505Z,20.88
2022-08-08T13:45:47.515Z,20.83
2022-08-08T13:48:19.691Z,20.94
2022-08-08T13:50:57.832Z,20.96
2022-08-08T13:53:53.317Z,21.04
2022-08-08T13:56:44.535Z,20.95
2022-08-08T13:59:49.172Z,21.01
2022-08-08T14:02:33.115Z,21.01
2022-08-08T14:05:08.959Z,20.97
2022-08-08T14:07:53.010Z,21.05
2022-08-08T14:10:32.585Z,21.03
2022-08-08T14:13:20.876Z,21.12
2022-08-08T14:16:03.289Z,21.05
2022-08-08T14:18:34.762Z,20.97
2022-08-08T14:21:08.228Z,20.98
2022-08-08T14:24:07.994Z,21.07
2022-08-08T14:26:47.526Z,21.09
2022-08-08T14:29:26.917Z,21.33
2022-08-08T14:32:10.859Z,20.98
2022-08-08T14:34:42.391Z,20.96
2022-08-08T14:37:12.538Z,21.11
2022-08-08T14:40:05.680Z,20.92
2022-08-08T14:42:35.275Z,21.20
2022-08-08T14:45:10.033Z,21.01
2022-08-08T14:47:51.411Z,20.84
2022-08-08T14:50:37.991Z,20.54
2022-08-08T14:53:15.979Z,20.43
2022-08-08T14:55:43.690Z,20.49
2022-08-08T14:58:16.879Z,20.63
2022-08-08T15:00:49.019Z,20.40
2022-08-08T15:03:17.282Z,20.34
2022-08-08T15:05:53.681Z,20.38
2022-08-08T15:08:33.474Z,20.25
2022-08-08T15:11:04.802Z,20.20
2022-08-08T15:13:40.647Z,20.11
2022-08-08T15:16:23.239Z,20.13
2022-08-08T15:18:51.849Z,20.01
2022-08-08T15:21:20.881Z,19.93
2022-08-08T15:23:51.024Z,19.96
2022-08-08T15:26:25.769Z,19.86
2022-08-08T15:28:55.982Z,19.83
2022-08-08T15:31:55.491Z,19.76
2022-08-08T15:34:18.600Z,19.84
2022-08-08T15:37:02.032Z,19.76
2022-08-08T15:39:37.739Z,19.71
2022-08-08T15:42:13.018Z,19.81
2022-08-08T15:44:45.965Z,19.82
2022-08-08T15:47:15.627Z,19.74
2022-08-08T15:49:48.500Z,19.68
2022-08-08T15:52:20.560Z,19.65
2022-08-08T15:54:51.794Z,19.61
2022-08-08T15:57:20.817Z,19.56
2022-08-08T16:00:05.536Z,19.60
2022-08-08T16:02:36.056Z,19.61
2022-08-08T16:05:09.409Z,19.76
2022-08-08T16:07:52.308Z,19.98
2022-08-08T16:13:03.732Z,20.07
2022-08-08T16:13:28.178Z,20.07
2022-08-08T16:16:08.932Z,19.98
2022-08-08T16:18:39.948Z,19.88
2022-08-08T16:21:20.515Z,19.82
2022-08-08T16:23:55.870Z,19.68
2022-08-08T16:26:34.215Z,19.69
2022-08-08T16:29:09.087Z,19.84
2022-08-08T16:31:41.027Z,19.71
2022-08-08T16:34:12.227Z,19.76
2022-08-08T16:36:41.116Z,19.71
2022-08-08T16:39:27.943Z,19.69
2022-08-08T16:42:01.284Z,19.75
2022-08-08T16:44:33.701Z,19.67
2022-08-08T16:47:41.365Z,19.77
2022-08-08T16:50:13.923Z,19.83
2022-08-08T16:55:00.060Z,19.84
2022-08-08T16:55:53.076Z,19.86
2022-08-08T16:58:20.533Z,19.85
2022-08-08T17:00:49.069Z,19.93
2022-08-08T17:03:25.127Z,19.99
2022-08-08T17:06:36.960Z,20.01
2022-08-08T17:08:56.879Z,19.98
2022-08-08T17:11:27.939Z,20.12
2022-08-08T17:14:01.593Z,20.10
2022-08-08T17:19:47.788Z,20.04
2022-08-08T17:22:42.054Z,19.93
2022-08-08T17:25:13.969Z,19.90
2022-08-08T17:27:54.232Z,19.83
2022-08-08T17:30:44.036Z,19.87
2022-08-08T17:34:49.591Z,19.79
2022-08-08T17:36:31.166Z,19.76
2022-08-08T17:40:04.867Z,19.75
2022-08-08T17:42:02.899Z,19.76
2022-08-08T17:44:45.152Z,19.73
2022-08-08T17:47:37.791Z,19.74
2022-08-08T17:50:23.602Z,19.70
2022-08-08T17:53:08.973Z,19.54
2022-08-08T17:56:06.406Z,19.51
2022-08-08T17:58:51.851Z,19.53
2022-08-08T18:02:16.386Z,19.60
2022-08-08T18:04:51.327Z,19.48
2022-08-08T18:08:01.897Z,19.56
2022-08-08T18:10:54.004Z,19.55
2022-08-08T18:13:41.367Z,19.53
2022-08-08T18:16:20.217Z,19.49
2022-08-08T18:19:00.876Z,19.37
2022-08-08T18:25:13.050Z,19.21
2022-08-08T18:28:05.462Z,19.39
2022-08-08T18:30:49.718Z,19.46
2022-08-08T18:34:12.165Z,19.53
2022-08-08T18:37:47.962Z,19.47
2022-08-08T18:40:13.077Z,19.49
2022-08-08T18:42:50.212Z,19.52
2022-08-08T18:46:52.689Z,19.47
2022-08-08T18:48:56.946Z,19.37
2022-08-08T18:51:53.188Z,19.38
2022-08-08T18:54:39.314Z,19.24
2022-08-08T18:57:15.317Z,19.10
2022-08-08T18:59:53.020Z,19.10
2022-08-08T19:02:36.886Z,18.99
2022-08-08T19:05:44.011Z,18.80
2022-08-08T19:08:45.683Z,18.77
2022-08-08T19:11:22.393Z,18.82
2022-08-08T19:13:57.314Z,18.69
2022-08-08T19:16:32.172Z,18.74
2022-08-08T19:19:13.224Z,18.82
2022-08-08T19:21:48.839Z,18.92
2022-08-08T19:24:42.322Z,19.05
2022-08-08T19:27:12.279Z,19.05
2022-08-08T19:29:51.823Z,19.13
2022-08-08T19:32:31.261Z,19.07
2022-08-08T19:36:08.253Z,19.19
2022-08-08T19:42:18.016Z,19.41
2022-08-08T19:45:58.976Z,19.36
2022-08-08T19:49:00.730Z,19.30
2022-08-08T19:52:04.549Z,19.19
2022-08-08T19:55:09.461Z,19.18
2022-08-08T19:58:05.062Z,19.16
2022-08-08T20:00:40.222Z,19.12
2022-08-08T20:04:01.566Z,19.09
2022-08-08T20:06:13.664Z,19.05
2022-08-08T20:08:48.184Z,19.09
2022-08-08T20:11:18.790Z,19.02
2022-08-08T20:14:13.770Z,19.10
2022-08-08T20:16:53.270Z,19.08
2022-08-08T20:19:22.973Z,19.13
2022-08-08T20:21:52.031Z,19.13
2022-08-08T20:24:24.341Z,19.11
2022-08-08T20:26:59.624Z,19.22
2022-08-08T20:29:45.652Z,19.21
2022-08-08T20:32:19.429Z,19.35
2022-08-08T20:35:08.522Z,19.27
2022-08-08T20:37:57.900Z,19.19
2022-08-08T20:40:38.679Z,19.13
2022-08-08T20:43:22.899Z,19.03
2022-08-08T20:46:08.034Z,18.93
2022-08-08T20:48:36.862Z,18.83
2022-08-08T20:51:05.635Z,18.75
2022-08-08T20:54:00.515Z,18.69
2022-08-08T20:56:35.185Z,18.66
2022-08-08T20:59:09.104Z,18.60
2022-08-08T21:02:06.628Z,18.63
2022-08-08T21:04:36.813Z,18.66
2022-08-08T21:07:47.328Z,18.56
2022-08-08T21:10:31.446Z,18.61
2022-08-08T21:13:14.219Z,18.55
2022-08-08T21:16:06.291Z,18.59
2022-08-08T21:18:58.112Z,18.61
2022-08-08T21:21:41.117Z,18.52
2022-08-08T21:24:23.618Z,18.49
2022-08-08T21:27:01.007Z,18.42
2022-08-08T21:30:02.658Z,18.41
2022-08-08T21:32:34.779Z,18.39
2022-08-08T21:36:16.608Z,18.28
2022-08-08T22:00:15.502Z,18.07
2022-08-08T22:13:21.530Z,18.19
2022-08-08T22:20:10.802Z,18.18
2022-08-08T22:26:27.816Z,18.18
2022-08-08T22:30:53.184Z,18.25
2022-08-08T22:32:18.236Z,18.25
2022-08-08T22:34:51.102Z,18.17
2022-08-08T22:37:48.939Z,18.25
2022-08-08T22:41:25.323Z,18.21
2022-08-08T22:43:32.198Z,18.25
2022-08-08T22:46:18.679Z,18.29
2022-08-08T22:48:54.562Z,18.21
2022-08-08T22:51:22.056Z,18.09
2022-08-08T22:54:31.734Z,18.05
2022-08-08T22:56:43.686Z,18.01
2022-08-08T22:59:18.542Z,18.04
2022-08-08T23:02:02.789Z,17.97
2022-08-08T23:04:34.567Z,17.96
2022-08-08T23:07:07.573Z,17.87
2022-08-08T23:09:55.156Z,17.84
2022-08-08T23:12:40.584Z,17.83
2022-08-08T23:16:38.415Z,17.78
2022-08-08T23:18:14.557Z,17.78
2022-08-08T23:20:45.415Z,17.78
2022-08-08T23:23:32.729Z,17.83
2022-08-08T23:26:21.466Z,17.85
2022-08-08T23:28:58.009Z,17.78
2022-08-08T23:31:27.705Z,17.84
2022-08-08T23:34:29.268Z,17.77
2022-08-08T23:37:05.457Z,17.80
2022-08-08T23:39:41.831Z,17.78
2022-08-08T23:42:16.900Z,17.76
2022-08-08T23:44:45.245Z,17.75
2022-08-08T23:49:08.549Z,17.70
2022-08-08T23:50:00.958Z,17.68
2022-08-08T23:52:34.706Z,17.74
2022-08-08T23:55:14.188Z,17.65
2022-08-08T23:57:52.158Z,17.67
